createdAt,value
2022-08-08T00:02:03.853Z,8.85
2022-08-08T00:04:25.485Z,8.38
2022-08-08T00:06:57.435Z,9.77
2022-08-08T00:17:25.510Z,9.77
2022-08-08T00:20:03.834Z,10.35
2022-08-08T00:22:39.659Z,10.50
2022-08-08T00:27:38.397Z,8.93
2022-08-08T00:30:11.311Z,8.90
2022-08-08T00:41:06.742Z,8.18
2022-08-08T00:49:21.990Z,7.78
2022-08-08T00:51:51.021Z,8.23
2022-08-08T01:05:06.403Z,7.47
2022-08-08T01:20:31.915Z,7.35
2022-08-08T01:25:54.071Z,8.50
2022-08-08T01:28:36.885Z,7.70
2022-08-08T01:31:06.029Z,8.80
2022-08-08T01:34:01.142Z,8.75
2022-08-08T01:36:36.590Z,8.63
2022-08-08T01:39:09.410Z,8.82
2022-08-08T01:41:51.541Z,8.45
2022-08-08T01:44:39.073Z,7.95
2022-08-08T01:48:14.117Z,7.95
2022-08-08T02:00:58.564Z,8.50
2022-08-08T02:03:54.783Z,8.38
2022-08-08T02:06:36.633Z,9.13
2022-08-08T02:09:17.512Z,8.80
2022-08-08T02:12:00.019Z,9.32
2022-08-08T02:14:34.477Z,9.13
2022-08-08T02:17:44.085Z,8.98
2022-08-08T02:20:16.223Z,8.60
2022-08-08T02:23:22.716Z,9.60
2022-08-08T02:28:35.275Z,9.68
2022-08-08T02:34:08.067Z,9.57
2022-08-08T02:40:08.845Z,10.68
2022-08-08T02:43:07.467Z,10.57
2022-08-08T02:48:29.459Z,9.48
2022-08-08T02:56:03.790Z,10.77
2022-08-08T02:58:54.188Z,11.60
2022-08-08T03:05:03.477Z,11.45
2022-08-08T03:07:26.425Z,11.05
2022-08-08T03:10:32.823Z,10.25
2022-08-08T03:23:09.636Z,9.52
2022-08-08T03:33:58.758Z,10.88
2022-08-08T03:36:10.534Z,10.32
2022-08-08T03:38:58.197Z,10.68
2022-08-08T03:42:13.307Z,11.38
2022-08-08T03:44:25.682Z,10.93
2022-08-08T03:46:53.131Z,11.73
2022-08-08T03:49:56.906Z,10.82
2022-08-08T03:52:13.048Z,12.02
2022-08-08T03:55:56.231Z,12.20
2022-08-08T04:00:56.353Z,12.85
2022-08-08T04:05:50.741Z,12.43
2022-08-08T04:08:33.104Z,11.80
2022-08-08T04:11:02.368Z,11.50
2022-08-08T04:14:04.214Z,10.55
2022-08-08T04:18:52.299Z,10.70
2022-08-08T04:21:23.180Z,10.07
2022-08-08T04:26:16.031Z,10.80
2022-08-08T04:28:43.127Z,10.98
2022-08-08T04:33:41.563Z,11.65
2022-08-08T04:36:09.820Z,11.25
2022-08-08T04:38:37.618Z,11.07
2022-08-08T04:41:09.413Z,11.52
2022-08-08T04:54:36.448Z,11.20
2022-08-08T04:58:40.649Z,12.55
2022-08-08T05:01:10.813Z,13.27
2022-08-08T05:04:09.451Z,13.50
2022-08-08T05:06:36.490Z,12.60
2022-08-08T05:11:39.671Z,14.02
2022-08-08T05:14:08.485Z,14.23
2022-08-08T05:16:53.442Z,14.13
2022-08-08T05:20:09.786Z,13.13
2022-08-08T05:22:12.633Z,13.65
2022-08-08T05:32:04.641Z,13.98
2022-08-08T05:42:01.131Z,12.15
2022-08-08T05:44:31.014Z,10.95
2022-08-08T05:47:03.200Z,9.70
2022-08-08T05:49:31.545Z,9.27
2022-08-08T05:51:58.710Z,9.38
2022-08-08T05:54:43.211Z,8.82
2022-08-08T05:57:15.453Z,7.93
2022-08-08T05:59:59.730Z,7.80
2022-08-08T06:02:47.885Z,7.45
2022-08-08T06:05:34.873Z,7.63
2022-08-08T06:12:55.937Z,7.10
2022-08-08T06:27:38.826Z,5.72
2022-08-08T06:30:19.732Z,5.47
2022-08-08T06:32:52.601Z,5.35
2022-08-08T06:36:08.090Z,4.90
2022-08-08T06:40:36.927Z,3.53
2022-08-08T06:55:28.825Z,2.05
2022-08-08T06:58:05.365Z,1.88
2022-08-08T07:00:35.151Z,2.05
2022-08-08T07:03:09.423Z,1.83
2022-08-08T07:06:01.956Z,1.65
2022-08-08T07:08:31.001Z,1.83
2022-08-08T07:10:59.562Z,1.90
2022-08-08T07:13:31.988Z,1.80
2022-08-08T07:16:10.533Z,1.70
2022-08-08T07:18:49.316Z,1.40
2022-08-08T07:21:22.719Z,1.95
2022-08-08T07:24:09.493Z,1.40
2022-08-08T07:26:53.046Z,1.52
2022-08-08T07:31:46.745Z,1.50
2022-08-08T07:34:20.033Z,1.70
2022-08-08T07:36:55.352Z,1.23
2022-08-08T07:39:29.116Z,1.58
2022-08-08T07:46:49.206Z,1.23
2022-08-08T07:49:21.688Z,1.27
2022-08-08T07:51:53.160Z,1.55
2022-08-08T07:54:27.572Z,1.25
2022-08-08T08:04:33.424Z,1.30
2022-08-08T08:07:08.831Z,1.40
2022-08-08T08:09:40.004Z,1.50
2022-08-08T08:12:11.145Z,1.23
2022-08-08T08:15:05.744Z,1.40
2022-08-08T08:17:47.893Z,1.10
2022-08-08T08:20:17.821Z,1.52
2022-08-08T08:22:44.855Z,1.42
2022-08-08T08:25:16.877Z,1.55
2022-08-08T08:40:13.141Z,1.30
2022-08-08T08:42:41.646Z,1.70
2022-08-08T08:47:44.950Z,1.55
2022-08-08T08:52:57.474Z,1.33
2022-08-08T08:55:28.597Z,1.48
2022-08-08T08:57:56.117Z,1.60
2022-08-08T09:00:24.820Z,1.50
2022-08-08T09:02:51.945Z,1.55
2022-08-08T09:05:28.991Z,1.13
2022-08-08T09:08:13.123Z,1.27
2022-08-08T09:11:33.307Z,1.65
2022-08-08T09:14:01.598Z,1.10
2022-08-08T09:16:32.634Z,1.10
2022-08-08T09:18:59.858Z,1.27
2022-08-08T09:21:58.548Z,1.00
2022-08-08T09:24:17.685Z,1.27
2022-08-08T09:26:56.753Z,1.02
2022-08-08T09:29:24.896Z,1.25
2022-08-08T09:48:02.025Z,1.30
2022-08-08T09:50:01.427Z,1.40
2022-08-08T09:57:46.122Z,1.60
2022-08-08T10:02:42.299Z,1.52
2022-08-08T10:05:15.098Z,1.38
2022-08-08T10:10:30.401Z,1.75
2022-08-08T10:15:39.128Z,1.40
2022-08-08T10:18:13.209Z,1.60
2022-08-08T10:31:00.063Z,1.40
2022-08-08T10:33:38.192Z,1.15
2022-08-08T10:38:51.461Z,1.30
2022-08-08T10:41:20.318Z,1.20
2022-08-08T10:43:49.969Z,1.60
2022-08-08T10:46:29.337Z,2.00
2022-08-08T10:48:59.140Z,1.52
2022-08-08T10:51:31.133Z,1.55
2022-08-08T10:54:02.150Z,2.03
2022-08-08T10:56:36.007Z,1.45
2022-08-08T11:04:29.415Z,1.55
2022-08-08T11:12:15.569Z,1.60
2022-08-08T11:19:46.647Z,1.67
2022-08-08T11:22:24.549Z,1.30
2022-08-08T11:24:54.385Z,1.50
2022-08-08T11:27:23.930Z,1.35
2022-08-08T11:32:29.247Z,1.48
2022-08-08T11:35:27.314Z,1.50
2022-08-08T11:40:22.509Z,1.70
2022-08-08T11:42:52.607Z,1.90
2022-08-08T11:48:02.629Z,1.73
2022-08-08T11:52:58.166Z,1.60
2022-08-08T11:55:28.857Z,1.60
2022-08-08T11:58:21.744Z,1.52
2022-08-08T12:00:50.401Z,1.38
2022-08-08T12:08:15.892Z,1.58
2022-08-08T12:15:49.058Z,1.80
2022-08-08T12:18:21.667Z,1.38
2022-08-08T12:23:40.350Z,1.65
2022-08-08T12:26:17.070Z,1.50
2022-08-08T12:31:30.411Z,1.20
2022-08-08T12:34:06.168Z,1.70
2022-08-08T12:36:46.596Z,1.58
2022-08-08T12:42:01.458Z,1.42
2022-08-08T12:44:32.542Z,1.23
2022-08-08T12:47:01.126Z,1.95
2022-08-08T12:49:43.494Z,1.70
2022-08-08T12:52:28.538Z,1.45
2022-08-08T12:55:09.421Z,1.80
2022-08-08T13:02:34.334Z,1.75
2022-08-08T13:08:03.602Z,2.10
2022-08-08T13:10:21.229Z,1.70
2022-08-08T13:12:55.191Z,1.20
2022-08-08T13:15:29.324Z,1.40
2022-08-08T13:18:11.333Z,1.70
2022-08-08T13:20:48.339Z,1.63
2022-08-08T13:23:36.743Z,1.77
2022-08-08T13:31:03.724Z,1.73
2022-08-08T13:33:41.927Z,1.60
2022-08-08T13:36:10.807Z,1.60
2022-08-08T13:43:29.787Z,2.20
2022-08-08T13:46:06.984Z,2.17
2022-08-08T13:49:12.225Z,1.60
2022-08-08T13:51:41.681Z,1.70
2022-08-08T13:54:20.482Z,1.80
2022-08-08T13:59:13.051Z,1.88
2022-08-08T14:01:52.573Z,1.83
2022-08-08T14:04:24.438Z,1.42
2022-08-08T14:07:02.024Z,1.70
2022-08-08T14:14:55.400Z,1.95
2022-08-08T14:17:58.606Z,1.48
2022-08-08T14:22:42.932Z,1.83
2022-08-08T14:25:15.335Z,2.05
2022-08-08T14:27:59.611Z,1.45
2022-08-08T14:35:35.159Z,2.25
2022-08-08T14:38:09.571Z,2.00
2022-08-08T14:44:22.503Z,1.83
2022-08-08T14:47:00.261Z,2.13
2022-08-08T14:49:33.725Z,2.00
2022-08-08T14:52:21.247Z,1.80
2022-08-08T14:54:49.017Z,1.63
2022-08-08T14:57:16.971Z,2.55
2022-08-08T14:59:50.803Z,1.67
2022-08-08T15:02:22.011Z,2.40
2022-08-08T15:04:52.296Z,2.20
2022-08-08T15:07:24.397Z,2.50
2022-08-08T15:10:06.209Z,1.80
2022-08-08T15:12:37.325Z,1.98
2022-08-08T15:17:31.116Z,2.45
2022-08-08T15:19:57.926Z,1.65
2022-08-08T15:22:24.867Z,1.88
2022-08-08T15:28:04.687Z,1.95
2022-08-08T15:34:57.596Z,2.28
2022-08-08T15:37:25.231Z,1.85
2022-08-08T15:39:52.761Z,1.55
2022-08-08T15:42:31.823Z,1.40
2022-08-08T15:44:59.880Z,1.98
2022-08-08T15:47:26.579Z,1.90
2022-08-08T15:49:53.565Z,1.70
2022-08-08T15:52:22.114Z,1.90
2022-08-08T15:54:52.518Z,1.85
2022-08-08T15:57:19.792Z,2.03
2022-08-08T16:00:06.809Z,1.77
2022-08-08T16:02:50.831Z,1.45
2022-08-08T16:07:51.986Z,1.45
2022-08-08T16:13:15.125Z,1.50
2022-08-08T16:15:32.807Z,1.55
2022-08-08T16:18:11.603Z,1.40
2022-08-08T16:23:04.718Z,1.55
2022-08-08T16:25:52.468Z,1.38
2022-08-08T16:28:22.766Z,1.60
2022-08-08T16:31:03.208Z,2.40
2022-08-08T16:33:38.646Z,1.77
2022-08-08T16:36:08.900Z,1.42
2022-08-08T16:38:36.732Z,1.80
2022-08-08T16:41:11.963Z,2.38
2022-08-08T16:43:49.027Z,2.05
2022-08-08T16:46:35.628Z,2.13
2022-08-08T16:49:06.040Z,1.88
2022-08-08T16:55:00.971Z,1.10
2022-08-08T16:55:05.799Z,1.77
2022-08-08T16:57:22.648Z,1.75
2022-08-08T17:02:37.788Z,1.55
2022-08-08T17:05:06.468Z,1.98
2022-08-08T17:07:33.313Z,2.15
2022-08-08T17:10:04.863Z,1.58
2022-08-08T17:12:34.189Z,1.67
2022-08-08T17:15:04.173Z,1.77
2022-08-08T17:18:02.673Z,1.98
2022-08-08T17:20:31.857Z,1.85
2022-08-08T17:25:41.488Z,2.10
2022-08-08T17:35:54.375Z,1.42
2022-08-08T17:40:41.585Z,1.93
2022-08-08T17:43:08.364Z,1.52
2022-08-08T17:45:39.243Z,2.20
2022-08-08T17:48:11.341Z,1.40
2022-08-08T17:50:41.768Z,1.63
2022-08-08T17:53:08.437Z,2.00
2022-08-08T17:56:06.232Z,2.15
2022-08-08T18:03:14.254Z,1.55
2022-08-08T18:13:11.018Z,1.85
2022-08-08T18:15:42.217Z,2.13
2022-08-08T18:18:28.803Z,1.60
2022-08-08T18:23:26.628Z,1.77
2022-08-08T18:25:53.423Z,1.80
2022-08-08T18:28:23.605Z,2.10
2022-08-08T18:30:52.580Z,1.42
2022-08-08T18:33:36.961Z,1.88
2022-08-08T18:36:10.224Z,2.00
2022-08-08T18:38:46.432Z,2.03
2022-08-08T18:48:33.109Z,2.50
2022-08-08T18:50:59.996Z,2.13
2022-08-08T18:53:50.839Z,2.20
2022-08-08T18:56:24.012Z,2.05
2022-08-08T19:02:26.736Z,2.42
2022-08-08T19:04:10.605Z,2.13
2022-08-08T19:06:39.195Z,2.40
2022-08-08T19:09:13.185Z,2.63
2022-08-08T19:11:46.454Z,3.10
2022-08-08T19:14:13.927Z,2.60
2022-08-08T19:24:08.569Z,2.60
2022-08-08T19:26:52.912Z,3.35
2022-08-08T19:29:20.534Z,2.80
2022-08-08T19:34:35.561Z,2.80
2022-08-08T19:37:01.075Z,2.33
2022-08-08T19:39:35.530Z,2.58
2022-08-08T19:46:54.252Z,2.72
2022-08-08T19:49:23.472Z,2.60
2022-08-08T19:51:50.304Z,2.25
2022-08-08T19:54:19.516Z,2.30
2022-08-08T19:56:48.932Z,2.67
2022-08-08T19:59:18.819Z,2.28
2022-08-08T20:02:02.306Z,2.53
2022-08-08T20:04:31.281Z,3.20
2022-08-08T20:07:03.497Z,2.28
2022-08-08T20:09:32.599Z,2.78
2022-08-08T20:12:11.069Z,2.60
2022-08-08T20:14:41.886Z,3.38
2022-08-08T20:29:45.510Z,2.63
2022-08-08T20:32:14.344Z,2.90
2022-08-08T20:37:09.147Z,2.80
2022-08-08T20:39:41.323Z,2.47
2022-08-08T20:42:18.898Z,3.00
2022-08-08T20:44:47.280Z,2.80
2022-08-08T20:47:23.462Z,3.38
2022-08-08T20:54:42.170Z,2.92
2022-08-08T20:57:17.444Z,2.95
2022-08-08T20:59:46.784Z,3.25
2022-08-08T21:02:16.435Z,3.13
2022-08-08T21:04:52.185Z,2.53
2022-08-08T21:10:01.753Z,2.95
2022-08-08T21:12:34.573Z,2.67
2022-08-08T21:15:09.607Z,3.10
2022-08-08T21:32:19.312Z,3.20
2022-08-08T21:39:56.285Z,2.80
2022-08-08T21:42:23.719Z,3.03
2022-08-08T21:48:21.283Z,3.00
2022-08-08T21:50:02.521Z,3.35
2022-08-08T21:54:36.961Z,3.55
2022-08-08T21:56:06.621Z,3.42
2022-08-08T21:58:05.510Z,3.53
2022-08-08T22:07:50.738Z,3.03
2022-08-08T22:10:32.311Z,3.28
2022-08-08T22:22:41.861Z,3.08
2022-08-08T22:25:12.173Z,3.22
2022-08-08T22:28:03.689Z,2.97
2022-08-08T22:30:31.713Z,2.95
2022-08-08T22:37:54.307Z,2.88
2022-08-08T22:40:21.869Z,3.08
2022-08-08T22:42:48.567Z,3.13
2022-08-08T22:45:15.696Z,3.33
2022-08-08T22:47:47.255Z,3.17
2022-08-08T22:50:25.229Z,3.13
2022-08-08T22:57:49.573Z,3.45
2022-08-08T23:00:17.320Z,3.50
2022-08-08T23:02:44.859Z,3.50
2022-08-08T23:05:17.365Z,3.17
2022-08-08T23:07:57.067Z,4.05
2022-08-08T23:10:26.708Z,3.13
2022-08-08T23:12:54.358Z,3.78
2022-08-08T23:16:40.003Z,3.40
2022-08-08T23:20:34.506Z,3.63
2022-08-08T23:23:01.237Z,3.67
2022-08-08T23:27:54.375Z,3.80
2022-08-08T23:30:22.568Z,4.00
2022-08-08T23:35:17.331Z,4.13
2022-08-08T23:38:01.108Z,3.80
2022-08-08T23:49:00.079Z,3.63
2022-08-08T23:52:59.322Z,4.13
2022-08-08T23:55:31.974Z,4.15
2022-08-08T23:58:01.671Z,4.25
